sensor_id;sensor_type;location;lat;lon;timestamp;P1;durP1;ratioP1;P2;durP2;ratioP2
39104;SDS011;46464;51.154;13.812;2023-09-18T00:00:30;5.60;;;3.88;;
39104;SDS011;46464;51.154;13.812;2023-09-18T00:02:57;8.65;;;4.65;;
39104;SDS011;46464;51.154;13.812;2023-09-18T00:05:23;4.60;;;3.92;;
39104;SDS011;46464;51.154;13.812;2023-09-18T00:07:50;5.72;;;3.80;;
39104;SDS011;46464;51.154;13.812;2023-09-18T00:10:16;4.95;;;4.07;;
39104;SDS011;46464;51.154;13.812;2023-09-18T00:12:43;4.63;;;3.90;;
39104;SDS011;46464;51.154;13.812;2023-09-18T00:15:10;6.05;;;4.28;;
39104;SDS011;46464;51.154;13.812;2023-09-18T00:17:36;6.68;;;5.82;;
39104;SDS011;46464;51.154;13.812;2023-09-18T00:22:33;4.53;;;4.10;;
39104;SDS011;46464;51.154;13.812;2023-09-18T00:25:00;6.15;;;3.95;;
39104;SDS011;46464;51.154;13.812;2023-09-18T00:27:28;6.20;;;3.85;;
39104;SDS011;46464;51.154;13.812;2023-09-18T00:29:55;6.35;;;4.28;;
39104;SDS011;46464;51.154;13.812;2023-09-18T00:37:15;7.30;;;4.20;;
39104;SDS011;46464;51.154;13.812;2023-09-18T00:39:43;5.50;;;4.00;;
39104;SDS011;46464;51.154;13.812;2023-09-18T00:42:10;4.82;;;4.22;;
39104;SDS011;46464;51.154;13.812;2023-09-18T00:44:40;4.93;;;4.30;;
39104;SDS011;46464;51.154;13.812;2023-09-18T00:47:10;6.88;;;4.78;;
39104;SDS011;46464;51.154;13.812;2023-09-18T00:49:38;6.63;;;4.03;;
39104;SDS011;46464;51.154;13.812;2023-09-18T00:52:07;4.38;;;3.83;;
39104;SDS011;46464;51.154;13.812;2023-09-18T00:54:35;4.85;;;3.92;;
39104;SDS011;46464;51.154;13.812;2023-09-18T00:57:04;5.82;;;4.65;;
39104;SDS011;46464;51.154;13.812;2023-09-18T00:59:32;6.35;;;4.60;;
39104;SDS011;46464;51.154;13.812;2023-09-18T01:02:00;4.80;;;3.97;;
39104;SDS011;46464;51.154;13.812;2023-09-18T01:04:28;6.20;;;4.50;;
39104;SDS011;46464;51.154;13.812;2023-09-18T01:06:56;6.57;;;4.60;;
39104;SDS011;46464;51.154;13.812;2023-09-18T01:09:24;5.20;;;4.57;;
39104;SDS011;46464;51.154;13.812;2023-09-18T01:11:58;5.75;;;4.68;;
39104;SDS011;46464;51.154;13.812;2023-09-18T01:14:37;5.38;;;4.88;;
39104;SDS011;46464;51.154;13.812;2023-09-18T01:17:17;5.07;;;4.43;;
39104;SDS011;46464;51.154;13.812;2023-09-18T01:19:45;5.25;;;4.55;;
39104;SDS011;46464;51.154;13.812;2023-09-18T01:22:14;5.75;;;5.00;;
39104;SDS011;46464;51.154;13.812;2023-09-18T01:24:43;5.07;;;4.57;;
39104;SDS011;46464;51.154;13.812;2023-09-18T01:27:12;6.32;;;5.22;;
39104;SDS011;46464;51.154;13.812;2023-09-18T01:29:40;7.10;;;5.78;;
39104;SDS011;46464;51.154;13.812;2023-09-18T01:37:05;6.00;;;5.18;;
39104;SDS011;46464;51.154;13.812;2023-09-18T01:39:33;5.57;;;4.97;;
39104;SDS011;46464;51.154;13.812;2023-09-18T01:42:02;5.88;;;5.22;;
39104;SDS011;46464;51.154;13.812;2023-09-18T01:44:33;5.72;;;4.70;;
39104;SDS011;46464;51.154;13.812;2023-09-18T01:47:02;6.75;;;5.50;;
39104;SDS011;46464;51.154;13.812;2023-09-18T01:49:32;7.75;;;5.70;;
39104;SDS011;46464;51.154;13.812;2023-09-18T01:52:03;6.22;;;5.30;;
39104;SDS011;46464;51.154;13.812;2023-09-18T01:54:31;5.72;;;5.03;;
39104;SDS011;46464;51.154;13.812;2023-09-18T01:56:58;7.75;;;4.90;;
39104;SDS011;46464;51.154;13.812;2023-09-18T02:01:52;8.38;;;5.47;;
39104;SDS011;46464;51.154;13.812;2023-09-18T02:04:23;6.90;;;5.70;;
39104;SDS011;46464;51.154;13.812;2023-09-18T02:07:10;7.85;;;5.22;;
39104;SDS011;46464;51.154;13.812;2023-09-18T02:14:30;8.48;;;5.95;;
39104;SDS011;46464;51.154;13.812;2023-09-18T02:16:57;7.18;;;5.57;;
39104;SDS011;46464;51.154;13.812;2023-09-18T02:19:24;6.15;;;5.55;;
39104;SDS011;46464;51.154;13.812;2023-09-18T02:21:52;6.53;;;5.80;;
39104;SDS011;46464;51.154;13.812;2023-09-18T02:24:22;6.22;;;5.57;;
39104;SDS011;46464;51.154;13.812;2023-09-18T02:26:49;6.80;;;6.10;;
39104;SDS011;46464;51.154;13.812;2023-09-18T02:29:16;6.38;;;5.78;;
39104;SDS011;46464;51.154;13.812;2023-09-18T02:31:43;7.03;;;5.93;;
39104;SDS011;46464;51.154;13.812;2023-09-18T02:34:09;7.75;;;5.50;;
39104;SDS011;46464;51.154;13.812;2023-09-18T02:36:36;6.82;;;6.10;;
39104;SDS011;46464;51.154;13.812;2023-09-18T02:39:03;7.88;;;5.93;;
39104;SDS011;46464;51.154;13.812;2023-09-18T02:41:29;6.68;;;5.47;;
39104;SDS011;46464;51.154;13.812;2023-09-18T02:43:56;7.60;;;5.53;;
39104;SDS011;46464;51.154;13.812;2023-09-18T02:46:22;5.85;;;5.25;;
39104;SDS011;46464;51.154;13.812;2023-09-18T02:48:49;6.05;;;5.30;;
39104;SDS011;46464;51.154;13.812;2023-09-18T02:51:16;8.32;;;6.07;;
39104;SDS011;46464;51.154;13.812;2023-09-18T02:53:43;12.40;;;6.15;;
39104;SDS011;46464;51.154;13.812;2023-09-18T02:56:09;6.10;;;5.50;;
39104;SDS011;46464;51.154;13.812;2023-09-18T02:58:36;6.50;;;5.53;;
39104;SDS011;46464;51.154;13.812;2023-09-18T03:01:03;9.48;;;5.65;;
39104;SDS011;46464;51.154;13.812;2023-09-18T03:03:33;6.43;;;5.75;;
39104;SDS011;46464;51.154;13.812;2023-09-18T03:06:04;6.30;;;5.70;;
39104;SDS011;46464;51.154;13.812;2023-09-18T03:08:31;7.65;;;6.00;;
39104;SDS011;46464;51.154;13.812;2023-09-18T03:10:58;6.82;;;6.13;;
39104;SDS011;46464;51.154;13.812;2023-09-18T03:13:26;6.80;;;5.97;;
39104;SDS011;46464;51.154;13.812;2023-09-18T03:15:54;7.57;;;5.47;;
39104;SDS011;46464;51.154;13.812;2023-09-18T03:18:22;5.85;;;5.25;;
39104;SDS011;46464;51.154;13.812;2023-09-18T03:20:49;7.40;;;5.75;;
39104;SDS011;46464;51.154;13.812;2023-09-18T03:23:16;8.73;;;5.75;;
39104;SDS011;46464;51.154;13.812;2023-09-18T03:28:17;6.32;;;5.20;;
39104;SDS011;46464;51.154;13.812;2023-09-18T03:38:14;6.43;;;5.70;;
39104;SDS011;46464;51.154;13.812;2023-09-18T03:40:41;6.18;;;5.57;;
39104;SDS011;46464;51.154;13.812;2023-09-18T03:43:08;6.15;;;5.55;;
39104;SDS011;46464;51.154;13.812;2023-09-18T03:45:35;6.65;;;5.03;;
39104;SDS011;46464;51.154;13.812;2023-09-18T03:50:29;6.75;;;5.68;;
39104;SDS011;46464;51.154;13.812;2023-09-18T03:52:55;6.05;;;5.45;;
39104;SDS011;46464;51.154;13.812;2023-09-18T03:55:22;7.85;;;5.25;;
39104;SDS011;46464;51.154;13.812;2023-09-18T03:57:48;6.47;;;5.50;;
39104;SDS011;46464;51.154;13.812;2023-09-18T04:00:15;8.10;;;6.78;;
39104;SDS011;46464;51.154;13.812;2023-09-18T04:02:42;9.75;;;5.85;;
39104;SDS011;46464;51.154;13.812;2023-09-18T04:05:09;6.18;;;5.45;;
39104;SDS011;46464;51.154;13.812;2023-09-18T04:12:29;7.55;;;6.50;;
39104;SDS011;46464;51.154;13.812;2023-09-18T04:14:56;6.18;;;5.55;;
39104;SDS011;46464;51.154;13.812;2023-09-18T04:17:22;7.47;;;5.85;;
39104;SDS011;46464;51.154;13.812;2023-09-18T04:22:16;6.60;;;5.90;;
39104;SDS011;46464;51.154;13.812;2023-09-18T04:24:42;6.38;;;5.68;;
39104;SDS011;46464;51.154;13.812;2023-09-18T04:27:09;6.90;;;6.00;;
39104;SDS011;46464;51.154;13.812;2023-09-18T04:29:36;9.35;;;5.97;;
39104;SDS011;46464;51.154;13.812;2023-09-18T04:32:03;8.23;;;6.80;;
39104;SDS011;46464;51.154;13.812;2023-09-18T04:34:30;6.75;;;5.95;;
39104;SDS011;46464;51.154;13.812;2023-09-18T04:36:57;7.57;;;6.35;;
39104;SDS011;46464;51.154;13.812;2023-09-18T04:39:23;7.18;;;6.47;;
39104;SDS011;46464;51.154;13.812;2023-09-18T04:41:50;6.82;;;6.22;;
39104;SDS011;46464;51.154;13.812;2023-09-18T04:44:16;7.45;;;6.45;;
39104;SDS011;46464;51.154;13.812;2023-09-18T04:49:10;8.05;;;6.40;;
39104;SDS011;46464;51.154;13.812;2023-09-18T04:51:38;6.85;;;6.15;;
39104;SDS011;46464;51.154;13.812;2023-09-18T04:54:05;8.52;;;6.20;;
39104;SDS011;46464;51.154;13.812;2023-09-18T04:56:32;7.70;;;6.20;;
39104;SDS011;46464;51.154;13.812;2023-09-18T04:58:59;7.03;;;6.32;;
39104;SDS011;46464;51.154;13.812;2023-09-18T05:01:26;7.22;;;6.53;;
39104;SDS011;46464;51.154;13.812;2023-09-18T05:06:20;7.28;;;6.55;;
39104;SDS011;46464;51.154;13.812;2023-09-18T05:08:47;6.25;;;5.65;;
39104;SDS011;46464;51.154;13.812;2023-09-18T05:11:14;8.90;;;6.13;;
39104;SDS011;46464;51.154;13.812;2023-09-18T05:13:40;6.50;;;5.82;;
39104;SDS011;46464;51.154;13.812;2023-09-18T05:16:07;6.22;;;5.63;;
39104;SDS011;46464;51.154;13.812;2023-09-18T05:18:33;7.90;;;5.95;;
39104;SDS011;46464;51.154;13.812;2023-09-18T05:21:00;7.78;;;6.45;;
39104;SDS011;46464;51.154;13.812;2023-09-18T05:23:28;9.90;;;6.00;;
39104;SDS011;46464;51.154;13.812;2023-09-18T05:25:55;8.10;;;6.18;;
39104;SDS011;46464;51.154;13.812;2023-09-18T05:28:21;7.85;;;6.10;;
39104;SDS011;46464;51.154;13.812;2023-09-18T05:30:48;8.35;;;6.18;;
39104;SDS011;46464;51.154;13.812;2023-09-18T05:33:14;6.65;;;5.97;;
39104;SDS011;46464;51.154;13.812;2023-09-18T05:35:42;8.88;;;6.22;;
39104;SDS011;46464;51.154;13.812;2023-09-18T05:38:11;8.10;;;6.78;;
39104;SDS011;46464;51.154;13.812;2023-09-18T05:40:43;7.35;;;5.60;;
39104;SDS011;46464;51.154;13.812;2023-09-18T05:43:11;7.80;;;6.35;;
39104;SDS011;46464;51.154;13.812;2023-09-18T05:45:38;6.45;;;5.43;;
39104;SDS011;46464;51.154;13.812;2023-09-18T05:48:06;6.35;;;5.70;;
39104;SDS011;46464;51.154;13.812;2023-09-18T05:50:34;6.82;;;5.70;;
39104;SDS011;46464;51.154;13.812;2023-09-18T05:53:05;7.75;;;5.88;;
39104;SDS011;46464;51.154;13.812;2023-09-18T05:55:35;6.43;;;5.57;;
39104;SDS011;46464;51.154;13.812;2023-09-18T05:58:02;6.47;;;5.65;;
39104;SDS011;46464;51.154;13.812;2023-09-18T06:00:30;6.45;;;5.85;;
39104;SDS011;46464;51.154;13.812;2023-09-18T06:02:57;7.47;;;6.68;;
39104;SDS011;46464;51.154;13.812;2023-09-18T06:05:25;8.35;;;6.18;;
39104;SDS011;46464;51.154;13.812;2023-09-18T06:07:52;6.32;;;5.72;;
39104;SDS011;46464;51.154;13.812;2023-09-18T06:10:19;9.55;;;5.75;;
39104;SDS011;46464;51.154;13.812;2023-09-18T06:12:46;6.88;;;6.18;;
39104;SDS011;46464;51.154;13.812;2023-09-18T06:15:12;7.28;;;6.57;;
39104;SDS011;46464;51.154;13.812;2023-09-18T06:17:39;7.63;;;6.10;;
39104;SDS011;46464;51.154;13.812;2023-09-18T06:20:08;7.28;;;6.22;;
39104;SDS011;46464;51.154;13.812;2023-09-18T06:22:37;7.22;;;6.22;;
39104;SDS011;46464;51.154;13.812;2023-09-18T06:25:06;7.50;;;6.20;;
39104;SDS011;46464;51.154;13.812;2023-09-18T06:27:36;6.60;;;5.85;;
39104;SDS011;46464;51.154;13.812;2023-09-18T06:30:06;6.43;;;5.82;;
39104;SDS011;46464;51.154;13.812;2023-09-18T06:32:33;6.43;;;5.75;;
39104;SDS011;46464;51.154;13.812;2023-09-18T06:35:00;7.32;;;6.57;;
39104;SDS011;46464;51.154;13.812;2023-09-18T06:37:27;7.43;;;6.65;;
39104;SDS011;46464;51.154;13.812;2023-09-18T06:39:54;7.15;;;6.32;;
39104;SDS011;46464;51.154;13.812;2023-09-18T06:42:21;6.53;;;5.93;;
39104;SDS011;46464;51.154;13.812;2023-09-18T06:44:47;8.02;;;6.13;;
39104;SDS011;46464;51.154;13.812;2023-09-18T06:47:14;6.50;;;5.68;;
39104;SDS011;46464;51.154;13.812;2023-09-18T06:49:43;8.15;;;6.05;;
39104;SDS011;46464;51.154;13.812;2023-09-18T06:59:29;6.53;;;5.60;;
39104;SDS011;46464;51.154;13.812;2023-09-18T07:01:57;8.23;;;6.15;;
39104;SDS011;46464;51.154;13.812;2023-09-18T07:06:50;10.23;;;6.90;;
39104;SDS011;46464;51.154;13.812;2023-09-18T07:09:19;7.68;;;5.78;;
39104;SDS011;46464;51.154;13.812;2023-09-18T07:11:49;7.22;;;6.53;;
39104;SDS011;46464;51.154;13.812;2023-09-18T07:14:17;6.93;;;6.20;;
39104;SDS011;46464;51.154;13.812;2023-09-18T07:16:43;12.43;;;6.03;;
39104;SDS011;46464;51.154;13.812;2023-09-18T07:19:10;7.15;;;6.07;;
39104;SDS011;46464;51.154;13.812;2023-09-18T07:21:38;6.43;;;5.47;;
39104;SDS011;46464;51.154;13.812;2023-09-18T07:24:06;7.72;;;5.38;;
39104;SDS011;46464;51.154;13.812;2023-09-18T07:26:34;6.97;;;5.82;;
39104;SDS011;46464;51.154;13.812;2023-09-18T07:29:00;6.03;;;5.40;;
39104;SDS011;46464;51.154;13.812;2023-09-18T07:31:28;6.35;;;5.68;;
39104;SDS011;46464;51.154;13.812;2023-09-18T07:33:54;7.95;;;5.57;;
39104;SDS011;46464;51.154;13.812;2023-09-18T07:36:21;7.43;;;5.35;;
39104;SDS011;46464;51.154;13.812;2023-09-18T07:38:48;6.03;;;5.10;;
39104;SDS011;46464;51.154;13.812;2023-09-18T07:41:14;9.43;;;5.68;;
39104;SDS011;46464;51.154;13.812;2023-09-18T07:43:42;7.05;;;5.05;;
39104;SDS011;46464;51.154;13.812;2023-09-18T07:46:08;7.72;;;5.65;;
39104;SDS011;46464;51.154;13.812;2023-09-18T07:48:35;6.25;;;5.65;;
39104;SDS011;46464;51.154;13.812;2023-09-18T07:51:01;7.45;;;5.15;;
39104;SDS011;46464;51.154;13.812;2023-09-18T07:53:28;6.60;;;5.43;;
39104;SDS011;46464;51.154;13.812;2023-09-18T07:55:55;5.80;;;5.20;;
39104;SDS011;46464;51.154;13.812;2023-09-18T08:00:59;5.75;;;5.05;;
39104;SDS011;46464;51.154;13.812;2023-09-18T08:03:26;6.32;;;5.28;;
39104;SDS011;46464;51.154;13.812;2023-09-18T08:05:53;6.05;;;5.45;;
39104;SDS011;46464;51.154;13.812;2023-09-18T08:08:20;5.63;;;5.10;;
39104;SDS011;46464;51.154;13.812;2023-09-18T08:10:47;7.10;;;5.32;;
39104;SDS011;46464;51.154;13.812;2023-09-18T08:15:40;6.35;;;5.13;;
39104;SDS011;46464;51.154;13.812;2023-09-18T08:20:34;5.05;;;4.55;;
39104;SDS011;46464;51.154;13.812;2023-09-18T08:23:03;5.55;;;4.95;;
39104;SDS011;46464;51.154;13.812;2023-09-18T08:25:31;6.18;;;4.88;;
39104;SDS011;46464;51.154;13.812;2023-09-18T08:27:58;6.25;;;5.32;;
39104;SDS011;46464;51.154;13.812;2023-09-18T08:30:25;5.53;;;4.70;;
39104;SDS011;46464;51.154;13.812;2023-09-18T08:35:18;5.18;;;4.68;;
39104;SDS011;46464;51.154;13.812;2023-09-18T08:37:44;7.38;;;4.43;;
39104;SDS011;46464;51.154;13.812;2023-09-18T08:42:44;6.63;;;4.68;;
39104;SDS011;46464;51.154;13.812;2023-09-18T08:45:23;7.15;;;4.75;;
39104;SDS011;46464;51.154;13.812;2023-09-18T08:47:57;5.68;;;4.50;;
39104;SDS011;46464;51.154;13.812;2023-09-18T08:50:25;5.97;;;4.30;;
39104;SDS011;46464;51.154;13.812;2023-09-18T08:52:54;4.85;;;3.90;;
39104;SDS011;46464;51.154;13.812;2023-09-18T08:55:22;5.75;;;4.35;;
39104;SDS011;46464;51.154;13.812;2023-09-18T08:57:50;4.70;;;4.20;;
39104;SDS011;46464;51.154;13.812;2023-09-18T09:00:19;5.97;;;4.15;;
39104;SDS011;46464;51.154;13.812;2023-09-18T09:05:15;6.15;;;4.18;;
39104;SDS011;46464;51.154;13.812;2023-09-18T09:07:42;8.95;;;4.13;;
39104;SDS011;46464;51.154;13.812;2023-09-18T09:12:48;6.15;;;3.72;;
39104;SDS011;46464;51.154;13.812;2023-09-18T09:15:26;7.47;;;3.90;;
39104;SDS011;46464;51.154;13.812;2023-09-18T09:18:05;5.40;;;4.03;;
39104;SDS011;46464;51.154;13.812;2023-09-18T09:20:33;4.57;;;3.85;;
39104;SDS011;46464;51.154;13.812;2023-09-18T09:23:02;4.75;;;3.90;;
39104;SDS011;46464;51.154;13.812;2023-09-18T09:25:31;5.75;;;3.85;;
39104;SDS011;46464;51.154;13.812;2023-09-18T09:27:58;5.28;;;3.67;;
39104;SDS011;46464;51.154;13.812;2023-09-18T09:30:32;5.78;;;4.53;;
39104;SDS011;46464;51.154;13.812;2023-09-18T09:33:00;5.30;;;4.40;;
39104;SDS011;46464;51.154;13.812;2023-09-18T09:35:30;4.53;;;3.60;;
39104;SDS011;46464;51.154;13.812;2023-09-18T09:37:58;4.18;;;3.78;;
39104;SDS011;46464;51.154;13.812;2023-09-18T09:40:28;9.95;;;4.63;;
39104;SDS011;46464;51.154;13.812;2023-09-18T09:42:56;4.60;;;3.58;;
39104;SDS011;46464;51.154;13.812;2023-09-18T09:45:30;5.07;;;3.55;;
39104;SDS011;46464;51.154;13.812;2023-09-18T09:48:05;4.47;;;4.07;;
39104;SDS011;46464;51.154;13.812;2023-09-18T09:50:33;5.97;;;3.78;;
39104;SDS011;46464;51.154;13.812;2023-09-18T09:53:15;6.60;;;3.53;;
39104;SDS011;46464;51.154;13.812;2023-09-18T09:55:42;4.20;;;3.80;;
39104;SDS011;46464;51.154;13.812;2023-09-18T10:00:47;5.28;;;3.30;;
39104;SDS011;46464;51.154;13.812;2023-09-18T10:03:19;4.00;;;3.47;;
39104;SDS011;46464;51.154;13.812;2023-09-18T10:05:48;6.45;;;3.55;;
39104;SDS011;46464;51.154;13.812;2023-09-18T10:08:19;5.60;;;3.60;;
39104;SDS011;46464;51.154;13.812;2023-09-18T10:10:49;4.20;;;3.17;;
39104;SDS011;46464;51.154;13.812;2023-09-18T10:13:19;5.03;;;3.33;;
39104;SDS011;46464;51.154;13.812;2023-09-18T10:15:50;4.20;;;3.65;;
39104;SDS011;46464;51.154;13.812;2023-09-18T10:18:22;7.50;;;3.60;;
39104;SDS011;46464;51.154;13.812;2023-09-18T10:20:56;5.72;;;3.67;;
39104;SDS011;46464;51.154;13.812;2023-09-18T10:26:22;3.90;;;3.47;;
39104;SDS011;46464;51.154;13.812;2023-09-18T10:28:55;5.32;;;3.30;;
39104;SDS011;46464;51.154;13.812;2023-09-18T10:31:26;3.83;;;3.03;;
39104;SDS011;46464;51.154;13.812;2023-09-18T10:33:57;8.02;;;3.28;;
39104;SDS011;46464;51.154;13.812;2023-09-18T10:36:25;3.85;;;3.40;;
39104;SDS011;46464;51.154;13.812;2023-09-18T10:38:54;6.85;;;3.35;;
39104;SDS011;46464;51.154;13.812;2023-09-18T10:41:22;4.53;;;3.20;;
39104;SDS011;46464;51.154;13.812;2023-09-18T10:43:53;4.55;;;3.50;;
39104;SDS011;46464;51.154;13.812;2023-09-18T10:46:20;4.65;;;3.20;;
39104;SDS011;46464;51.154;13.812;2023-09-18T10:48:47;4.43;;;3.63;;
39104;SDS011;46464;51.154;13.812;2023-09-18T10:51:15;3.45;;;3.05;;
39104;SDS011;46464;51.154;13.812;2023-09-18T10:53:50;4.18;;;3.30;;
39104;SDS011;46464;51.154;13.812;2023-09-18T10:56:21;7.95;;;3.55;;
39104;SDS011;46464;51.154;13.812;2023-09-18T10:58:58;5.72;;;3.60;;
39104;SDS011;46464;51.154;13.812;2023-09-18T11:01:27;3.70;;;3.10;;
39104;SDS011;46464;51.154;13.812;2023-09-18T11:04:00;8.13;;;2.90;;
39104;SDS011;46464;51.154;13.812;2023-09-18T11:06:28;3.80;;;2.83;;
39104;SDS011;46464;51.154;13.812;2023-09-18T11:09:02;3.10;;;2.80;;
39104;SDS011;46464;51.154;13.812;2023-09-18T11:11:32;6.50;;;3.42;;
39104;SDS011;46464;51.154;13.812;2023-09-18T11:13:59;5.18;;;3.38;;
39104;SDS011;46464;51.154;13.812;2023-09-18T11:21:32;5.95;;;2.90;;
39104;SDS011;46464;51.154;13.812;2023-09-18T11:24:06;8.50;;;3.22;;
39104;SDS011;46464;51.154;13.812;2023-09-18T11:26:40;5.55;;;3.15;;
39104;SDS011;46464;51.154;13.812;2023-09-18T11:29:09;5.00;;;3.15;;
39104;SDS011;46464;51.154;13.812;2023-09-18T11:31:47;3.85;;;3.00;;
39104;SDS011;46464;51.154;13.812;2023-09-18T11:34:29;5.22;;;3.22;;
39104;SDS011;46464;51.154;13.812;2023-09-18T11:37:01;6.93;;;3.40;;
39104;SDS011;46464;51.154;13.812;2023-09-18T11:39:45;6.30;;;3.45;;
39104;SDS011;46464;51.154;13.812;2023-09-18T11:42:13;5.28;;;3.33;;
39104;SDS011;46464;51.154;13.812;2023-09-18T11:44:40;6.15;;;3.47;;
39104;SDS011;46464;51.154;13.812;2023-09-18T11:47:14;4.22;;;3.28;;
39104;SDS011;46464;51.154;13.812;2023-09-18T11:52:26;6.07;;;3.47;;
39104;SDS011;46464;51.154;13.812;2023-09-18T11:54:57;5.07;;;3.80;;
39104;SDS011;46464;51.154;13.812;2023-09-18T11:57:24;4.57;;;3.25;;
39104;SDS011;46464;51.154;13.812;2023-09-18T11:59:51;7.55;;;3.97;;
39104;SDS011;46464;51.154;13.812;2023-09-18T12:02:25;5.82;;;3.65;;
39104;SDS011;46464;51.154;13.812;2023-09-18T12:04:55;6.28;;;3.50;;
39104;SDS011;46464;51.154;13.812;2023-09-18T12:07:21;6.10;;;3.90;;
39104;SDS011;46464;51.154;13.812;2023-09-18T12:09:49;5.40;;;3.30;;
39104;SDS011;46464;51.154;13.812;2023-09-18T12:12:16;5.05;;;3.38;;
39104;SDS011;46464;51.154;13.812;2023-09-18T12:14:44;4.95;;;3.35;;
39104;SDS011;46464;51.154;13.812;2023-09-18T12:17:14;7.57;;;3.33;;
39104;SDS011;46464;51.154;13.812;2023-09-18T12:19:54;4.97;;;3.92;;
39104;SDS011;46464;51.154;13.812;2023-09-18T12:22:27;6.07;;;3.45;;
39104;SDS011;46464;51.154;13.812;2023-09-18T12:25:10;8.15;;;3.47;;
39104;SDS011;46464;51.154;13.812;2023-09-18T12:27:42;6.18;;;3.58;;
39104;SDS011;46464;51.154;13.812;2023-09-18T12:30:09;7.28;;;3.78;;
39104;SDS011;46464;51.154;13.812;2023-09-18T12:32:38;7.18;;;4.07;;
39104;SDS011;46464;51.154;13.812;2023-09-18T12:35:06;5.03;;;3.45;;
39104;SDS011;46464;51.154;13.812;2023-09-18T12:37:34;5.90;;;3.80;;
39104;SDS011;46464;51.154;13.812;2023-09-18T12:40:02;4.70;;;4.10;;
39104;SDS011;46464;51.154;13.812;2023-09-18T12:42:34;7.47;;;3.42;;
39104;SDS011;46464;51.154;13.812;2023-09-18T12:45:02;6.05;;;3.42;;
39104;SDS011;46464;51.154;13.812;2023-09-18T12:47:29;6.10;;;3.65;;
39104;SDS011;46464;51.154;13.812;2023-09-18T12:50:01;6.32;;;3.80;;
39104;SDS011;46464;51.154;13.812;2023-09-18T12:52:29;5.70;;;4.00;;
39104;SDS011;46464;51.154;13.812;2023-09-18T12:54:57;9.38;;;4.38;;
39104;SDS011;46464;51.154;13.812;2023-09-18T12:57:25;7.50;;;4.15;;
39104;SDS011;46464;51.154;13.812;2023-09-18T12:59:51;7.35;;;4.40;;
39104;SDS011;46464;51.154;13.812;2023-09-18T13:02:20;5.28;;;3.95;;
39104;SDS011;46464;51.154;13.812;2023-09-18T13:04:56;4.28;;;3.47;;
39104;SDS011;46464;51.154;13.812;2023-09-18T13:07:25;10.98;;;4.43;;
39104;SDS011;46464;51.154;13.812;2023-09-18T13:10:00;6.35;;;4.30;;
39104;SDS011;46464;51.154;13.812;2023-09-18T13:12:41;5.95;;;4.50;;
39104;SDS011;46464;51.154;13.812;2023-09-18T13:15:24;4.70;;;3.70;;
39104;SDS011;46464;51.154;13.812;2023-09-18T13:17:53;8.40;;;4.50;;
39104;SDS011;46464;51.154;13.812;2023-09-18T13:20:22;5.53;;;4.15;;
39104;SDS011;46464;51.154;13.812;2023-09-18T13:22:51;5.25;;;4.50;;
39104;SDS011;46464;51.154;13.812;2023-09-18T13:25:22;8.07;;;4.45;;
39104;SDS011;46464;51.154;13.812;2023-09-18T13:27:51;5.90;;;4.43;;
39104;SDS011;46464;51.154;13.812;2023-09-18T13:30:18;4.88;;;4.35;;
39104;SDS011;46464;51.154;13.812;2023-09-18T13:32:47;6.03;;;3.92;;
39104;SDS011;46464;51.154;13.812;2023-09-18T13:35:17;6.22;;;4.50;;
39104;SDS011;46464;51.154;13.812;2023-09-18T13:37:45;8.57;;;4.32;;
39104;SDS011;46464;51.154;13.812;2023-09-18T13:40:12;7.35;;;4.80;;
39104;SDS011;46464;51.154;13.812;2023-09-18T13:42:38;5.68;;;4.78;;
39104;SDS011;46464;51.154;13.812;2023-09-18T13:47:35;6.68;;;4.43;;
39104;SDS011;46464;51.154;13.812;2023-09-18T13:50:03;5.45;;;4.60;;
39104;SDS011;46464;51.154;13.812;2023-09-18T13:52:32;7.15;;;4.53;;
39104;SDS011;46464;51.154;13.812;2023-09-18T13:55:00;5.00;;;4.18;;
39104;SDS011;46464;51.154;13.812;2023-09-18T13:57:32;6.82;;;3.90;;
39104;SDS011;46464;51.154;13.812;2023-09-18T13:59:59;5.50;;;4.20;;
39104;SDS011;46464;51.154;13.812;2023-09-18T14:02:27;5.10;;;4.28;;
39104;SDS011;46464;51.154;13.812;2023-09-18T14:04:54;9.68;;;4.50;;
39104;SDS011;46464;51.154;13.812;2023-09-18T14:07:21;7.13;;;4.35;;
39104;SDS011;46464;51.154;13.812;2023-09-18T14:09:48;7.30;;;4.15;;
39104;SDS011;46464;51.154;13.812;2023-09-18T14:12:15;6.40;;;3.95;;
39104;SDS011;46464;51.154;13.812;2023-09-18T14:14:42;6.53;;;4.70;;
39104;SDS011;46464;51.154;13.812;2023-09-18T14:17:10;9.20;;;3.60;;
39104;SDS011;46464;51.154;13.812;2023-09-18T14:19:37;9.55;;;3.47;;
39104;SDS011;46464;51.154;13.812;2023-09-18T14:22:07;7.90;;;2.90;;
39104;SDS011;46464;51.154;13.812;2023-09-18T14:24:34;11.57;;;2.22;;
39104;SDS011;46464;51.154;13.812;2023-09-18T14:27:01;5.18;;;2.20;;
39104;SDS011;46464;51.154;13.812;2023-09-18T14:29:29;8.80;;;2.25;;
39104;SDS011;46464;51.154;13.812;2023-09-18T14:32:05;9.05;;;2.15;;
39104;SDS011;46464;51.154;13.812;2023-09-18T14:34:34;11.02;;;2.97;;
39104;SDS011;46464;51.154;13.812;2023-09-18T14:37:05;8.68;;;2.38;;
39104;SDS011;46464;51.154;13.812;2023-09-18T14:39:33;13.45;;;3.33;;
39104;SDS011;46464;51.154;13.812;2023-09-18T14:42:00;10.38;;;2.75;;
39104;SDS011;46464;51.154;13.812;2023-09-18T14:44:27;10.57;;;2.33;;
39104;SDS011;46464;51.154;13.812;2023-09-18T14:46:54;7.85;;;2.15;;
39104;SDS011;46464;51.154;13.812;2023-09-18T14:49:21;13.30;;;2.30;;
39104;SDS011;46464;51.154;13.812;2023-09-18T14:51:47;11.57;;;2.50;;
39104;SDS011;46464;51.154;13.812;2023-09-18T14:54:15;12.68;;;3.00;;
39104;SDS011;46464;51.154;13.812;2023-09-18T14:56:42;9.10;;;2.28;;
39104;SDS011;46464;51.154;13.812;2023-09-18T14:59:11;6.80;;;2.42;;
39104;SDS011;46464;51.154;13.812;2023-09-18T15:01:38;6.88;;;2.22;;
39104;SDS011;46464;51.154;13.812;2023-09-18T15:04:04;10.35;;;2.72;;
39104;SDS011;46464;51.154;13.812;2023-09-18T15:06:31;7.65;;;2.03;;
39104;SDS011;46464;51.154;13.812;2023-09-18T15:11:24;6.68;;;2.20;;
39104;SDS011;46464;51.154;13.812;2023-09-18T15:13:51;9.48;;;3.03;;
39104;SDS011;46464;51.154;13.812;2023-09-18T15:16:17;13.82;;;2.60;;
39104;SDS011;46464;51.154;13.812;2023-09-18T15:21:10;9.18;;;2.28;;
39104;SDS011;46464;51.154;13.812;2023-09-18T15:26:04;9.00;;;2.40;;
39104;SDS011;46464;51.154;13.812;2023-09-18T15:28:30;6.40;;;2.47;;
39104;SDS011;46464;51.154;13.812;2023-09-18T15:30:57;8.40;;;2.35;;
39104;SDS011;46464;51.154;13.812;2023-09-18T15:33:24;5.78;;;1.58;;
39104;SDS011;46464;51.154;13.812;2023-09-18T15:35:52;9.77;;;1.80;;
39104;SDS011;46464;51.154;13.812;2023-09-18T15:38:19;8.13;;;1.60;;
39104;SDS011;46464;51.154;13.812;2023-09-18T15:40:47;7.50;;;1.45;;
39104;SDS011;46464;51.154;13.812;2023-09-18T15:43:15;7.45;;;1.60;;
39104;SDS011;46464;51.154;13.812;2023-09-18T15:45:43;4.03;;;1.70;;
39104;SDS011;46464;51.154;13.812;2023-09-18T15:50:36;5.55;;;1.75;;
39104;SDS011;46464;51.154;13.812;2023-09-18T15:53:04;5.30;;;0.90;;
39104;SDS011;46464;51.154;13.812;2023-09-18T15:55:31;8.73;;;1.30;;
39104;SDS011;46464;51.154;13.812;2023-09-18T16:00:24;7.65;;;1.25;;
39104;SDS011;46464;51.154;13.812;2023-09-18T16:05:18;4.85;;;0.93;;
39104;SDS011;46464;51.154;13.812;2023-09-18T16:07:53;5.15;;;0.80;;
39104;SDS011;46464;51.154;13.812;2023-09-18T16:10:31;3.70;;;1.10;;
39104;SDS011;46464;51.154;13.812;2023-09-18T16:12:58;3.33;;;0.88;;
39104;SDS011;46464;51.154;13.812;2023-09-18T16:15:25;2.83;;;0.95;;
39104;SDS011;46464;51.154;13.812;2023-09-18T16:17:55;7.20;;;1.17;;
39104;SDS011;46464;51.154;13.812;2023-09-18T16:20:22;4.47;;;1.30;;
39104;SDS011;46464;51.154;13.812;2023-09-18T16:22:48;6.25;;;1.30;;